• Join FlightAware (Why Join?)
  • Login
  • US Flag 
04:25AM EDT


 

Airport Tracker/Info


-or-


 

Live Flight TrackerFlight Track Log ✈ UAL654 ✈ 13-Jun-2013 ✈ KORD - KMCO

Flight Track Log - Related Links

Times and Time Zones

All times are in EDT time to prevent confusion due to time zone crossing. See the UAL654 flight status page for this flight to view local times or setup timezone preferences in your user account.

Time Position Orientation Groundspeed Altitude Reporting Facility
EDT Latitude Longitude Course Direction KTS MPH feet Rate Location/Type
07:17AM 41.9833 -87.8833 143° Southeast 166 191 1,900  Level Chicago TRACON
07:18AM 41.9500 -87.8500 143° Southeast 187 215 3,400 1,620 Climbing Chicago TRACON
07:18AM 41.9150 -87.8158 144° Southeast 198 228 4,400 1,020 Climbing Chicago Center
07:19AM 41.8383 -87.8044 174° South 287 330 5,100 1,500 Climbing Chicago Center
07:20AM 41.7558 -87.7953 175° South 297 342 7,500 2,460 Climbing Chicago Center
07:21AM 41.6711 -87.7772 171° South 306 352 10,200 2,640 Climbing Chicago Center
07:22AM 41.5792 -87.7583 171° South 332 382 12,900 2,040 Climbing Chicago Center
07:23AM 41.4797 -87.7386 172° South 354 407 14,400 1,680 Climbing Chicago Center
07:24AM 41.3692 -87.7250 175° South 395 455 16,400 2,220 Climbing Chicago Center
07:26AM 41.2553 -87.7261 180° South 405 466 19,000 2,040 Climbing Chicago Center
07:27AM 41.1408 -87.7189 177° South 410 472 20,600 1,440 Climbing Chicago Center
07:28AM 41.0192 -87.7011 174° South 433 498 22,000 1,560 Climbing Chicago Center
07:29AM 40.8972 -87.6828 174° South 441 507 23,800 1,740 Climbing Chicago Center
07:30AM 40.7469 -87.6625 174° South 452 520 25,600 1,560 Climbing Chicago Center
07:31AM 40.6203 -87.6464 174° South 457 526 27,000 1,200 Climbing Chicago Center
07:32AM 40.4911 -87.6286 174° South 467 537 28,100 1,200 Climbing Chicago Center
07:33AM 40.3586 -87.6078 173° South 478 550 29,500 1,440 Climbing Chicago Center
07:34AM 40.2331 -87.5533 162° South 482 555 31,100 1,560 Climbing Chicago Center
07:35AM 40.1197 -87.4803 154° Southeast 467 537 32,800 1,200 Climbing Chicago Center
07:36AM 40.0014 -87.4075 155° Southeast 466 536 33,600 1,020 Climbing Indianapolis Center
07:37AM 39.8869 -87.3308 153° Southeast 464 534 34,900 660 Climbing Indianapolis Center
07:38AM 39.7736 -87.2519 152° Southeast 464 534 35,000  Climbing Indianapolis Center
07:39AM 39.6319 -87.1592 153° Southeast 476 548 35,000  Level Indianapolis Center
07:40AM 39.5106 -87.0950 158° South 474 545 35,000  Level Indianapolis Center
07:41AM 39.3903 -87.0297 157° South 472 543 35,000  Level Indianapolis Center
07:42AM 39.2692 -86.9719 160° South 469 540 35,000  Level Indianapolis Center
07:43AM 39.1339 -86.9061 159° South 474 545 35,000  Level Indianapolis Center
07:44AM 39.0086 -86.8461 160° South 476 548 35,000  Level Indianapolis Center
07:45AM 38.8822 -86.7844 159° South 482 555 35,100  Climbing Indianapolis Center
07:46AM 38.7547 -86.7233 160° South 483 556 35,000 -60 Descending Indianapolis Center
07:47AM 38.6264 -86.6614 159° South 486 559 35,000  Level Indianapolis Center
07:48AM 38.4975 -86.5989 159° South 488 562 35,000 -960 Level Indianapolis Center
07:49AM 38.3711 -86.5397 160° South 480 552 33,100 -1,020 Descending Indianapolis Center
07:50AM 38.2439 -86.4803 160° South 480 552 33,000 -540 Descending Indianapolis Center
07:52AM 38.0697 -86.4181 158° South  Level FlightAware Approximate
07:53AM 37.8667 -86.3022 158° South 477 549 31,000  Level Indianapolis Center
07:54AM 37.7319 -86.2406 160° South 473 544 31,000  Level Indianapolis Center
07:55AM 37.6167 -86.1878 160° South 475 547 31,000 -60 Level Indianapolis Center
07:56AM 37.4811 -86.1244 160° South 473 544 30,900  Descending Indianapolis Center
07:57AM 37.3556 -86.0692 161° South 472 543 31,000  Climbing Indianapolis Center
07:58AM 37.2278 -86.0075 159° South 482 555 31,000  Level Indianapolis Center
07:59AM 37.1003 -85.9500 160° South 480 552 31,000  Level Indianapolis Center
08:00AM 36.9736 -85.8914 160° South 479 551 31,000  Level Indianapolis Center
08:01AM 36.8464 -85.8333 160° South 480 552 31,000  Level Indianapolis Center
08:02AM 36.7083 -85.7706 160° South 472 543 31,000  Level Indianapolis Center
08:03AM 36.5833 -85.7142 160° South 476 548 31,000  Level Indianapolis Center
08:04AM 36.4578 -85.6581 160° South 478 550 31,000 240 Level Indianapolis Center
08:05AM 36.3331 -85.6028 160° South 478 550 31,500 660 Climbing Indianapolis Center
08:06AM 36.2058 -85.5456 160° South 485 558 32,400 1,260 Climbing Indianapolis Center
08:07AM 36.0522 -85.4775 160° South 491 565 34,200 1,320 Climbing Indianapolis Center
08:09AM 35.9006 -85.4128 161° South 505 581 35,400 1,020 Climbing Atlanta Center
08:10AM 35.7739 -85.3594 161° South 491 565 36,500 780 Climbing Atlanta Center
08:11AM 35.6492 -85.3039 160° South 486 559 37,000 240 Climbing Atlanta Center
08:12AM 35.5225 -85.2483 160° South 486 559 37,000  Level Atlanta Center
08:13AM 35.3978 -85.1928 160° South 486 559 37,000  Level Atlanta Center
08:14AM 35.2753 -85.1378 160° South 486 559 37,000  Level Atlanta Center
08:15AM 35.1525 -85.0853 161° South 481 554 37,000 -60 Level Atlanta Center
08:16AM 35.0300 -85.0306 160° South 481 554 36,900 -960 Descending Atlanta Center
08:17AM 34.9092 -84.9811 161° South 471 542 35,100 -1,980 Descending Atlanta Center
08:18AM 34.7844 -84.9239 159° South 471 542 33,000 -1,080 Descending Atlanta Center
08:19AM 34.6575 -84.8722 161° South 476 548 33,000  Level Atlanta Center
08:20AM 34.5494 -84.8231 159° South 469 540 33,000 -60 Level Atlanta Center
08:21AM 34.4267 -84.7717 161° South 464 534 32,900 -60 Descending Atlanta Center
08:22AM 34.3058 -84.7203 161° South 464 534 32,900  Level Atlanta Center
08:23AM 34.1808 -84.6667 160° South 464 534 33,000  Climbing Atlanta Center
08:24AM 34.0433 -84.6078 160° South 473 544 33,000  Level Atlanta Center
08:25AM 33.9206 -84.5644 164° South 473 544 33,000  Level Atlanta Center
08:26AM 33.7975 -84.5089 159° South 468 539 33,000  Level Atlanta Center
08:27AM 33.6911 -84.4633 160° South 468 539 33,000  Level Atlanta Center
08:28AM 33.5661 -84.4128 161° South 468 539 33,000  Level Atlanta Center
08:29AM 33.4431 -84.3600 160° South 463 533 33,000  Level Atlanta Center
08:30AM 33.3222 -84.3097 161° South 463 533 33,000  Level Atlanta Center
08:31AM 33.1972 -84.2597 161° South 463 533 33,000  Level Atlanta Center
08:32AM 33.0761 -84.2100 161° South 463 533 33,000  Level Atlanta Center
08:33AM 32.9572 -84.1578 160° South 463 533 33,000  Level Atlanta Center
08:34AM 32.8342 -84.1081 161° South 463 533 33,000  Level Atlanta Center
08:35AM 32.7108 -84.0586 161° South 463 533 33,000  Level Atlanta Center
08:36AM 32.5897 -84.0067 160° South 463 533 33,000  Level Atlanta Center
08:37AM 32.4667 -83.9553 161° South 463 533 33,000  Level Atlanta Center
08:38AM 32.3436 -83.9061 161° South 463 533 33,000  Level Atlanta Center
08:39AM 32.2222 -83.8547 160° South 463 533 33,000  Level Atlanta Center
08:40AM 32.1011 -83.8058 161° South 463 533 33,000  Level Atlanta Center
08:40AM 32.0444 -83.7847 162° South 473 544 33,000  Level Jacksonville Center
08:41AM 31.9236 -83.7322 160° South 478 550 33,000 -60 Level Jacksonville Center
08:42AM 31.7883 -83.6772 161° South 466 536 32,900  Descending Jacksonville Center
08:43AM 31.6739 -83.6053 152° Southeast 467 537 33,000  Climbing Jacksonville Center
08:44AM 31.5678 -83.5364 151° Southeast 473 544 33,000  Level Jacksonville Center
08:45AM 31.4450 -83.4528 150° Southeast 473 544 33,000  Level Jacksonville Center
08:46AM 31.3347 -83.3767 149° Southeast 473 544 33,000  Level Jacksonville Center
08:47AM 31.2242 -83.3008 150° Southeast 468 539 33,000 -600 Level Jacksonville Center
08:48AM 31.1139 -83.2225 149° Southeast 463 533 31,900 -1,380 Descending Jacksonville Center
08:49AM 31.0075 -83.1519 150° Southeast 463 533 30,300 -1,680 Descending Jacksonville Center
08:50AM 30.9011 -83.0789 149° Southeast 457 526 28,600 -1,680 Descending Jacksonville Center
08:51AM 30.8011 -83.0086 149° Southeast 439 505 27,000 -900 Descending Jacksonville Center
08:52AM 30.6925 -82.9433 153° Southeast 433 498 26,900 -60 Descending Jacksonville Center
08:53AM 30.5922 -82.8708 148° Southeast 433 498 26,900 -960 Level Jacksonville Center
08:54AM 30.4900 -82.7961 148° Southeast 433 498 25,000 -1,020 Descending Jacksonville Center
08:55AM 30.3856 -82.7264 150° Southeast 433 498 24,900 -60 Descending Jacksonville Center
08:56AM 30.2831 -82.6592 150° Southeast 433 498 24,900  Level Jacksonville Center
08:57AM 30.1806 -82.5922 151° Southeast 433 498 24,900  Level Jacksonville Center
08:58AM 30.0844 -82.5300 151° Southeast 427 491 24,900  Level Jacksonville Center
08:59AM 29.9839 -82.4608 149° Southeast 427 491 24,900  Level Jacksonville Center
09:00AM 29.8731 -82.4158 161° South 422 486 24,900 -480 Level Jacksonville Center
09:01AM 29.7664 -82.3661 158° South 422 486 24,000 -540 Descending Jacksonville Center
09:02AM 29.6597 -82.3142 157° South 417 480 23,900 -180 Descending Jacksonville Center
09:03AM 29.5531 -82.2622 157° South 417 480 23,700 -1,200 Descending Jacksonville Center
09:04AM 29.4525 -82.2128 157° South 412 474 21,500 -2,100 Descending Jacksonville Center
09:05AM 29.3522 -82.1611 156° South 407 468 19,600 -1,860 Descending Jacksonville Center
09:06AM 29.2558 -82.1142 157° South 395 455 17,800 -2,040 Descending Jacksonville Center
09:07AM 29.1594 -82.0675 157° South 383 441 15,600 -2,100 Descending Jacksonville Center
09:08AM 29.0694 -82.0231 157° South 371 427 13,600 -1,860 Descending Jacksonville Center
09:09AM 28.9772 -81.9789 157° South 361 415 11,900 -1,320 Descending Jacksonville Center
09:10AM 28.8936 -81.9392 157° South 345 397 11,000 -480 Descending Jacksonville Center
09:11AM 28.8500 -81.8667 124° Southeast 292 336 11,000 -660 Level Orlando TRACON
09:12AM 28.8000 -81.7833 124° Southeast 291 335 9,700 -1,080 Descending Orlando TRACON
09:13AM 28.7500 -81.7167 131° Southeast 290 334 8,900 -480 Descending Orlando TRACON
09:14AM 28.7500 -81.6333 90° East 243 280 8,800 -660 Descending Orlando TRACON
09:15AM 28.7333 -81.5500 103° East 235 270 7,700 -1,200 Descending Orlando TRACON
09:16AM 28.7333 -81.4833 90° East 244 281 6,600 -900 Descending Orlando TRACON
09:17AM 28.7000 -81.4167 120° Southeast 230 265 6,000 -1,080 Descending Orlando TRACON
09:18AM 28.6500 -81.3833 150° Southeast 234 269 4,500 -1,320 Descending Orlando TRACON
09:19AM 28.5833 -81.3500 156° South 219 252 3,400 -1,080 Descending Orlando TRACON
09:20AM 28.5333 -81.3333 164° South 188 216 2,400 -1,140 Descending Orlando TRACON
09:21AM 28.5000 -81.3167 156° South 153 176 1,100 -1,140 Descending Orlando TRACON
09:22AM 28.4667 -81.3167 180° South 141 162 300 -1,020 Descending Orlando TRACON